sensor_id;sensor_type;location;lat;lon;timestamp;temperature;humidity
13796;SHT30;40911;51.552;9.874;2023-03-21T00:06:36;8.45;87.59
13796;SHT30;40911;51.552;9.874;2023-03-21T00:08:58;8.35;87.88
13796;SHT30;40911;51.552;9.874;2023-03-21T00:11:20;8.51;87.33
13796;SHT30;40911;51.552;9.874;2023-03-21T00:13:41;8.35;87.93
13796;SHT30;40911;51.552;9.874;2023-03-21T00:16:04;8.34;87.95
13796;SHT30;40911;51.552;9.874;2023-03-21T00:18:26;8.42;87.89
13796;SHT30;40911;51.552;9.874;2023-03-21T00:20:58;8.55;87.36
13796;SHT30;40911;51.552;9.874;2023-03-21T00:23:21;8.54;87.36
13796;SHT30;40911;51.552;9.874;2023-03-21T00:25:42;8.51;87.34
13796;SHT30;40911;51.552;9.874;2023-03-21T00:28:04;8.42;87.65
13796;SHT30;40911;51.552;9.874;2023-03-21T00:30:26;8.41;87.65
13796;SHT30;40911;51.552;9.874;2023-03-21T00:32:47;8.35;87.62
13796;SHT30;40911;51.552;9.874;2023-03-21T00:35:09;8.34;87.85
13796;SHT30;40911;51.552;9.874;2023-03-21T00:37:30;8.49;87.38
13796;SHT30;40911;51.552;9.874;2023-03-21T00:39:53;8.41;87.46
13796;SHT30;40911;51.552;9.874;2023-03-21T00:42:15;8.55;87.08
13796;SHT30;40911;51.552;9.874;2023-03-21T00:44:36;8.55;86.96
13796;SHT30;40911;51.552;9.874;2023-03-21T00:46:59;8.51;87.15
13796;SHT30;40911;51.552;9.874;2023-03-21T00:49:22;8.52;86.95
13796;SHT30;40911;51.552;9.874;2023-03-21T00:51:44;8.46;87.27
13796;SHT30;40911;51.552;9.874;2023-03-21T00:54:05;8.33;87.56
13796;SHT30;40911;51.552;9.874;2023-03-21T00:56:28;8.54;87.07
13796;SHT30;40911;51.552;9.874;2023-03-21T00:58:50;8.48;87.10
13796;SHT30;40911;51.552;9.874;2023-03-21T01:01:11;8.55;86.75
13796;SHT30;40911;51.552;9.874;2023-03-21T01:03:34;8.55;87.02
13796;SHT30;40911;51.552;9.874;2023-03-21T01:06:02;8.58;86.88
13796;SHT30;40911;51.552;9.874;2023-03-21T01:08:26;8.48;87.11
13796;SHT30;40911;51.552;9.874;2023-03-21T01:10:50;8.51;87.23
13796;SHT30;40911;51.552;9.874;2023-03-21T01:13:14;8.44;87.20
13796;SHT30;40911;51.552;9.874;2023-03-21T01:15:42;8.48;87.13
13796;SHT30;40911;51.552;9.874;2023-03-21T01:18:03;8.56;86.99
13796;SHT30;40911;51.552;9.874;2023-03-21T01:20:25;8.42;87.09
13796;SHT30;40911;51.552;9.874;2023-03-21T01:22:46;8.52;86.98
13796;SHT30;40911;51.552;9.874;2023-03-21T01:25:08;8.42;86.95
13796;SHT30;40911;51.552;9.874;2023-03-21T01:27:30;8.37;87.46
13796;SHT30;40911;51.552;9.874;2023-03-21T01:29:53;8.34;87.39
13796;SHT30;40911;51.552;9.874;2023-03-21T01:32:14;8.42;87.22
13796;SHT30;40911;51.552;9.874;2023-03-21T01:34:36;8.46;87.01
13796;SHT30;40911;51.552;9.874;2023-03-21T01:36:57;8.52;86.77
13796;SHT30;40911;51.552;9.874;2023-03-21T01:39:19;8.48;86.59
13796;SHT30;40911;51.552;9.874;2023-03-21T01:41:41;8.55;86.64
13796;SHT30;40911;51.552;9.874;2023-03-21T01:44:03;8.46;86.57
13796;SHT30;40911;51.552;9.874;2023-03-21T01:46:37;8.45;86.42
13796;SHT30;40911;51.552;9.874;2023-03-21T01:49:01;8.40;86.87
13796;SHT30;40911;51.552;9.874;2023-03-21T01:51:23;8.42;86.79
13796;SHT30;40911;51.552;9.874;2023-03-21T01:53:46;8.38;86.90
13796;SHT30;40911;51.552;9.874;2023-03-21T01:56:11;8.45;86.98
13796;SHT30;40911;51.552;9.874;2023-03-21T01:58:35;8.44;87.27
13796;SHT30;40911;51.552;9.874;2023-03-21T02:00:58;8.48;86.99
13796;SHT30;40911;51.552;9.874;2023-03-21T02:03:23;8.49;87.01
13796;SHT30;40911;51.552;9.874;2023-03-21T02:05:52;8.58;86.83
13796;SHT30;40911;51.552;9.874;2023-03-21T02:08:16;8.56;87.00
13796;SHT30;40911;51.552;9.874;2023-03-21T02:10:38;8.54;87.03
13796;SHT30;40911;51.552;9.874;2023-03-21T02:13:03;8.52;87.25
13796;SHT30;40911;51.552;9.874;2023-03-21T02:15:28;8.51;87.28
13796;SHT30;40911;51.552;9.874;2023-03-21T02:17:51;8.54;87.37
13796;SHT30;40911;51.552;9.874;2023-03-21T02:20:48;8.44;87.57
13796;SHT30;40911;51.552;9.874;2023-03-21T02:23:28;8.51;87.35
13796;SHT30;40911;51.552;9.874;2023-03-21T02:26:19;8.45;87.85
13796;SHT30;40911;51.552;9.874;2023-03-21T02:28:51;8.45;87.72
13796;SHT30;40911;51.552;9.874;2023-03-21T02:31:25;8.48;87.62
13796;SHT30;40911;51.552;9.874;2023-03-21T02:36:59;8.48;87.47
13796;SHT30;40911;51.552;9.874;2023-03-21T02:39:25;8.59;87.24
13796;SHT30;40911;51.552;9.874;2023-03-21T02:41:52;8.54;87.63
13796;SHT30;40911;51.552;9.874;2023-03-21T02:44:19;8.54;87.42
13796;SHT30;40911;51.552;9.874;2023-03-21T02:46:45;8.52;87.29
13796;SHT30;40911;51.552;9.874;2023-03-21T02:49:14;8.41;87.94
13796;SHT30;40911;51.552;9.874;2023-03-21T02:51:38;8.38;88.44
13796;SHT30;40911;51.552;9.874;2023-03-21T02:54:04;8.51;87.61
13796;SHT30;40911;51.552;9.874;2023-03-21T02:56:28;8.48;88.09
13796;SHT30;40911;51.552;9.874;2023-03-21T02:58:51;8.56;87.48
13796;SHT30;40911;51.552;9.874;2023-03-21T03:01:13;8.48;87.92
13796;SHT30;40911;51.552;9.874;2023-03-21T03:03:34;8.55;87.55
13796;SHT30;40911;51.552;9.874;2023-03-21T03:05:59;8.48;87.93
13796;SHT30;40911;51.552;9.874;2023-03-21T03:08:29;8.34;88.83
13796;SHT30;40911;51.552;9.874;2023-03-21T03:11:04;8.41;88.25
13796;SHT30;40911;51.552;9.874;2023-03-21T03:13:37;8.30;88.26
13796;SHT30;40911;51.552;9.874;2023-03-21T03:16:11;8.31;87.97
13796;SHT30;40911;51.552;9.874;2023-03-21T03:18:40;8.24;89.02
13796;SHT30;40911;51.552;9.874;2023-03-21T03:21:07;8.31;89.02
13796;SHT30;40911;51.552;9.874;2023-03-21T03:23:37;8.21;89.72
13796;SHT30;40911;51.552;9.874;2023-03-21T03:26:03;8.13;89.61
13796;SHT30;40911;51.552;9.874;2023-03-21T03:28:30;8.09;90.62
13796;SHT30;40911;51.552;9.874;2023-03-21T03:30:55;8.21;90.41
13796;SHT30;40911;51.552;9.874;2023-03-21T03:33:19;8.13;90.81
13796;SHT30;40911;51.552;9.874;2023-03-21T03:35:43;8.20;90.25
13796;SHT30;40911;51.552;9.874;2023-03-21T03:38:06;8.17;90.58
13796;SHT30;40911;51.552;9.874;2023-03-21T03:40:30;8.28;89.97
13796;SHT30;40911;51.552;9.874;2023-03-21T03:42:59;8.27;90.01
13796;SHT30;40911;51.552;9.874;2023-03-21T03:45:27;8.28;89.70
13796;SHT30;40911;51.552;9.874;2023-03-21T03:47:53;8.33;89.78
13796;SHT30;40911;51.552;9.874;2023-03-21T03:50:25;8.31;89.88
13796;SHT30;40911;51.552;9.874;2023-03-21T03:52:50;8.30;89.85
13796;SHT30;40911;51.552;9.874;2023-03-21T03:55:15;8.33;89.84
13796;SHT30;40911;51.552;9.874;2023-03-21T03:57:38;8.17;89.80
13796;SHT30;40911;51.552;9.874;2023-03-21T04:00:02;8.23;90.20
13796;SHT30;40911;51.552;9.874;2023-03-21T04:02:25;8.30;89.79
13796;SHT30;40911;51.552;9.874;2023-03-21T04:04:49;8.34;89.87
13796;SHT30;40911;51.552;9.874;2023-03-21T04:07:12;8.23;90.28
13796;SHT30;40911;51.552;9.874;2023-03-21T04:09:34;8.28;90.15
13796;SHT30;40911;51.552;9.874;2023-03-21T04:11:56;8.23;90.40
13796;SHT30;40911;51.552;9.874;2023-03-21T04:14:17;8.12;90.94
13796;SHT30;40911;51.552;9.874;2023-03-21T04:16:41;8.17;90.86
13796;SHT30;40911;51.552;9.874;2023-03-21T04:19:02;8.20;90.83
13796;SHT30;40911;51.552;9.874;2023-03-21T04:21:24;7.97;91.55
13796;SHT30;40911;51.552;9.874;2023-03-21T04:23:46;8.16;90.89
13796;SHT30;40911;51.552;9.874;2023-03-21T04:26:08;8.21;90.69
13796;SHT30;40911;51.552;9.874;2023-03-21T04:28:31;8.23;90.79
13796;SHT30;40911;51.552;9.874;2023-03-21T04:30:52;8.24;90.56
13796;SHT30;40911;51.552;9.874;2023-03-21T04:33:18;7.99;92.07
13796;SHT30;40911;51.552;9.874;2023-03-21T04:35:40;8.17;91.57
13796;SHT30;40911;51.552;9.874;2023-03-21T04:38:01;8.14;91.27
13796;SHT30;40911;51.552;9.874;2023-03-21T04:40:23;8.06;92.21
13796;SHT30;40911;51.552;9.874;2023-03-21T04:42:45;8.04;91.99
13796;SHT30;40911;51.552;9.874;2023-03-21T04:45:07;8.13;91.40
13796;SHT30;40911;51.552;9.874;2023-03-21T04:47:29;8.03;92.11
13796;SHT30;40911;51.552;9.874;2023-03-21T04:49:52;8.10;91.33
13796;SHT30;40911;51.552;9.874;2023-03-21T04:52:14;8.00;91.77
13796;SHT30;40911;51.552;9.874;2023-03-21T04:54:35;7.99;91.88
13796;SHT30;40911;51.552;9.874;2023-03-21T04:56:57;8.18;90.89
13796;SHT30;40911;51.552;9.874;2023-03-21T04:59:19;8.16;91.51
13796;SHT30;40911;51.552;9.874;2023-03-21T05:01:40;8.14;91.34
13796;SHT30;40911;51.552;9.874;2023-03-21T05:04:03;8.14;91.13
13796;SHT30;40911;51.552;9.874;2023-03-21T05:06:27;8.13;91.34
13796;SHT30;40911;51.552;9.874;2023-03-21T05:08:48;8.14;91.39
13796;SHT30;40911;51.552;9.874;2023-03-21T05:11:10;8.02;92.08
13796;SHT30;40911;51.552;9.874;2023-03-21T05:13:32;8.04;91.99
13796;SHT30;40911;51.552;9.874;2023-03-21T05:15:53;8.07;91.33
13796;SHT30;40911;51.552;9.874;2023-03-21T05:18:15;8.13;91.32
13796;SHT30;40911;51.552;9.874;2023-03-21T05:20:44;8.02;91.57
13796;SHT30;40911;51.552;9.874;2023-03-21T05:23:07;8.04;91.74
13796;SHT30;40911;51.552;9.874;2023-03-21T05:25:30;8.03;91.62
13796;SHT30;40911;51.552;9.874;2023-03-21T05:27:54;8.02;91.83
13796;SHT30;40911;51.552;9.874;2023-03-21T05:30:17;7.92;91.89
13796;SHT30;40911;51.552;9.874;2023-03-21T05:32:39;7.96;91.85
13796;SHT30;40911;51.552;9.874;2023-03-21T05:35:00;7.96;91.63
13796;SHT30;40911;51.552;9.874;2023-03-21T05:37:22;8.00;91.70
13796;SHT30;40911;51.552;9.874;2023-03-21T05:39:45;7.99;91.66
13796;SHT30;40911;51.552;9.874;2023-03-21T05:42:06;8.04;91.34
13796;SHT30;40911;51.552;9.874;2023-03-21T05:44:28;8.07;91.26
13796;SHT30;40911;51.552;9.874;2023-03-21T05:46:50;8.04;91.16
13796;SHT30;40911;51.552;9.874;2023-03-21T05:49:12;8.00;91.57
13796;SHT30;40911;51.552;9.874;2023-03-21T05:51:33;8.06;91.18
13796;SHT30;40911;51.552;9.874;2023-03-21T05:53:55;8.04;91.30
13796;SHT30;40911;51.552;9.874;2023-03-21T05:56:18;8.03;91.40
13796;SHT30;40911;51.552;9.874;2023-03-21T05:58:39;8.03;91.56
13796;SHT30;40911;51.552;9.874;2023-03-21T06:01:01;8.13;90.85
13796;SHT30;40911;51.552;9.874;2023-03-21T06:03:23;8.16;90.79
13796;SHT30;40911;51.552;9.874;2023-03-21T06:05:45;8.13;91.14
13796;SHT30;40911;51.552;9.874;2023-03-21T06:08:06;8.17;91.24
13796;SHT30;40911;51.552;9.874;2023-03-21T06:10:28;8.23;91.25
13796;SHT30;40911;51.552;9.874;2023-03-21T06:12:51;8.23;91.28
13796;SHT30;40911;51.552;9.874;2023-03-21T06:15:13;8.30;91.49
13796;SHT30;40911;51.552;9.874;2023-03-21T06:17:34;8.37;91.00
13796;SHT30;40911;51.552;9.874;2023-03-21T06:19:56;8.38;90.99
13796;SHT30;40911;51.552;9.874;2023-03-21T06:22:17;8.45;90.99
13796;SHT30;40911;51.552;9.874;2023-03-21T06:24:39;8.48;90.91
13796;SHT30;40911;51.552;9.874;2023-03-21T06:27:00;8.48;91.19
13796;SHT30;40911;51.552;9.874;2023-03-21T06:29:23;8.38;91.26
13796;SHT30;40911;51.552;9.874;2023-03-21T06:31:45;8.46;90.92
13796;SHT30;40911;51.552;9.874;2023-03-21T06:34:06;8.55;90.40
13796;SHT30;40911;51.552;9.874;2023-03-21T06:36:29;8.59;90.27
13796;SHT30;40911;51.552;9.874;2023-03-21T06:38:51;8.52;90.33
13796;SHT30;40911;51.552;9.874;2023-03-21T06:41:13;8.62;90.20
13796;SHT30;40911;51.552;9.874;2023-03-21T06:43:35;8.69;90.03
13796;SHT30;40911;51.552;9.874;2023-03-21T06:45:58;8.75;89.95
13796;SHT30;40911;51.552;9.874;2023-03-21T06:48:20;8.83;89.90
13796;SHT30;40911;51.552;9.874;2023-03-21T06:50:41;8.85;90.06
13796;SHT30;40911;51.552;9.874;2023-03-21T06:53:03;8.85;90.39
13796;SHT30;40911;51.552;9.874;2023-03-21T06:55:25;8.82;89.65
13796;SHT30;40911;51.552;9.874;2023-03-21T06:57:48;8.86;89.71
13796;SHT30;40911;51.552;9.874;2023-03-21T07:00:10;8.89;89.66
13796;SHT30;40911;51.552;9.874;2023-03-21T07:02:33;8.90;89.33
13796;SHT30;40911;51.552;9.874;2023-03-21T07:04:55;8.92;89.24
13796;SHT30;40911;51.552;9.874;2023-03-21T07:07:16;8.97;88.84
13796;SHT30;40911;51.552;9.874;2023-03-21T07:09:38;9.03;89.02
13796;SHT30;40911;51.552;9.874;2023-03-21T07:12:00;9.02;88.81
13796;SHT30;40911;51.552;9.874;2023-03-21T07:14:22;9.04;89.06
13796;SHT30;40911;51.552;9.874;2023-03-21T07:16:43;9.07;88.75
13796;SHT30;40911;51.552;9.874;2023-03-21T07:19:06;9.21;89.04
13796;SHT30;40911;51.552;9.874;2023-03-21T07:21:28;9.13;88.37
13796;SHT30;40911;51.552;9.874;2023-03-21T07:23:50;9.17;88.20
13796;SHT30;40911;51.552;9.874;2023-03-21T07:26:12;9.17;87.73
13796;SHT30;40911;51.552;9.874;2023-03-21T07:28:35;9.17;87.58
13796;SHT30;40911;51.552;9.874;2023-03-21T07:30:57;9.20;88.00
13796;SHT30;40911;51.552;9.874;2023-03-21T07:33:19;9.24;87.41
13796;SHT30;40911;51.552;9.874;2023-03-21T07:35:43;9.34;87.59
13796;SHT30;40911;51.552;9.874;2023-03-21T07:38:05;9.31;87.32
13796;SHT30;40911;51.552;9.874;2023-03-21T07:40:26;9.34;87.33
13796;SHT30;40911;51.552;9.874;2023-03-21T07:42:48;9.35;87.22
13796;SHT30;40911;51.552;9.874;2023-03-21T07:45:10;9.45;87.37
13796;SHT30;40911;51.552;9.874;2023-03-21T07:47:34;9.49;87.50
13796;SHT30;40911;51.552;9.874;2023-03-21T07:49:56;9.48;86.98
13796;SHT30;40911;51.552;9.874;2023-03-21T07:52:19;9.52;86.86
13796;SHT30;40911;51.552;9.874;2023-03-21T07:54:40;9.62;87.09
13796;SHT30;40911;51.552;9.874;2023-03-21T07:57:02;9.66;86.69
13796;SHT30;40911;51.552;9.874;2023-03-21T07:59:24;9.63;86.53
13796;SHT30;40911;51.552;9.874;2023-03-21T08:01:45;9.63;86.22
13796;SHT30;40911;51.552;9.874;2023-03-21T08:04:07;9.65;85.83
13796;SHT30;40911;51.552;9.874;2023-03-21T08:06:28;9.66;85.44
13796;SHT30;40911;51.552;9.874;2023-03-21T08:08:53;9.78;85.60
13796;SHT30;40911;51.552;9.874;2023-03-21T08:11:14;9.85;85.62
13796;SHT30;40911;51.552;9.874;2023-03-21T08:13:37;9.92;85.37
13796;SHT30;40911;51.552;9.874;2023-03-21T08:15:59;9.97;85.05
13796;SHT30;40911;51.552;9.874;2023-03-21T08:18:20;10.05;85.03
13796;SHT30;40911;51.552;9.874;2023-03-21T08:20:42;10.05;84.74
13796;SHT30;40911;51.552;9.874;2023-03-21T08:23:03;10.12;85.08
13796;SHT30;40911;51.552;9.874;2023-03-21T08:25:27;10.17;84.78
13796;SHT30;40911;51.552;9.874;2023-03-21T08:27:49;10.27;84.63
13796;SHT30;40911;51.552;9.874;2023-03-21T08:30:14;10.40;84.70
13796;SHT30;40911;51.552;9.874;2023-03-21T08:32:36;10.38;84.13
13796;SHT30;40911;51.552;9.874;2023-03-21T08:34:58;10.36;83.64
13796;SHT30;40911;51.552;9.874;2023-03-21T08:37:20;10.51;84.36
13796;SHT30;40911;51.552;9.874;2023-03-21T08:39:42;10.45;84.11
13796;SHT30;40911;51.552;9.874;2023-03-21T08:42:04;10.45;83.82
13796;SHT30;40911;51.552;9.874;2023-03-21T08:44:26;10.52;83.37
13796;SHT30;40911;51.552;9.874;2023-03-21T08:46:48;10.49;82.76
13796;SHT30;40911;51.552;9.874;2023-03-21T08:49:09;10.67;83.09
13796;SHT30;40911;51.552;9.874;2023-03-21T08:51:31;10.67;82.25
13796;SHT30;40911;51.552;9.874;2023-03-21T08:53:53;10.72;82.94
13796;SHT30;40911;51.552;9.874;2023-03-21T08:56:16;10.72;83.03
13796;SHT30;40911;51.552;9.874;2023-03-21T08:58:39;10.61;81.86
13796;SHT30;40911;51.552;9.874;2023-03-21T09:01:00;10.57;81.85
13796;SHT30;40911;51.552;9.874;2023-03-21T09:03:22;10.62;82.05
13796;SHT30;40911;51.552;9.874;2023-03-21T09:05:44;10.72;82.01
13796;SHT30;40911;51.552;9.874;2023-03-21T09:08:05;10.64;81.39
13796;SHT30;40911;51.552;9.874;2023-03-21T09:10:27;10.79;81.81
13796;SHT30;40911;51.552;9.874;2023-03-21T09:12:50;10.86;81.43
13796;SHT30;40911;51.552;9.874;2023-03-21T09:15:13;11.00;81.26
13796;SHT30;40911;51.552;9.874;2023-03-21T09:17:37;11.27;81.36
13796;SHT30;40911;51.552;9.874;2023-03-21T09:20:03;11.16;79.83
13796;SHT30;40911;51.552;9.874;2023-03-21T09:22:30;11.27;79.81
13796;SHT30;40911;51.552;9.874;2023-03-21T09:24:52;11.34;80.38
13796;SHT30;40911;51.552;9.874;2023-03-21T09:27:13;11.41;79.87
13796;SHT30;40911;51.552;9.874;2023-03-21T09:29:38;11.33;79.75
13796;SHT30;40911;51.552;9.874;2023-03-21T09:32:01;11.19;79.84
13796;SHT30;40911;51.552;9.874;2023-03-21T09:34:24;11.26;79.40
13796;SHT30;40911;51.552;9.874;2023-03-21T09:36:46;11.17;79.53
13796;SHT30;40911;51.552;9.874;2023-03-21T09:39:13;11.30;79.42
13796;SHT30;40911;51.552;9.874;2023-03-21T09:41:50;11.30;79.12
13796;SHT30;40911;51.552;9.874;2023-03-21T09:44:30;11.46;79.09
13796;SHT30;40911;51.552;9.874;2023-03-21T09:46:59;11.43;79.13
13796;SHT30;40911;51.552;9.874;2023-03-21T09:49:26;11.37;78.75
13796;SHT30;40911;51.552;9.874;2023-03-21T09:51:51;11.41;78.82
13796;SHT30;40911;51.552;9.874;2023-03-21T09:54:17;11.50;79.04
13796;SHT30;40911;51.552;9.874;2023-03-21T09:56:40;11.54;78.93
13796;SHT30;40911;51.552;9.874;2023-03-21T09:59:04;11.43;78.57
13796;SHT30;40911;51.552;9.874;2023-03-21T10:01:28;11.60;78.70
13796;SHT30;40911;51.552;9.874;2023-03-21T10:03:52;11.75;78.87
13796;SHT30;40911;51.552;9.874;2023-03-21T10:06:16;11.62;78.41
13796;SHT30;40911;51.552;9.874;2023-03-21T10:08:39;11.77;78.46
13796;SHT30;40911;51.552;9.874;2023-03-21T10:11:05;11.82;77.96
13796;SHT30;40911;51.552;9.874;2023-03-21T10:13:31;12.03;78.42
13796;SHT30;40911;51.552;9.874;2023-03-21T10:15:55;11.95;77.59
13796;SHT30;40911;51.552;9.874;2023-03-21T10:18:20;11.92;77.59
13796;SHT30;40911;51.552;9.874;2023-03-21T10:20:43;12.12;78.02
13796;SHT30;40911;51.552;9.874;2023-03-21T10:23:11;12.08;77.54
13796;SHT30;40911;51.552;9.874;2023-03-21T10:25:35;12.17;77.31
13796;SHT30;40911;51.552;9.874;2023-03-21T10:27:58;12.16;77.46
13796;SHT30;40911;51.552;9.874;2023-03-21T10:30:37;12.19;77.85
13796;SHT30;40911;51.552;9.874;2023-03-21T10:33:02;12.12;77.69
13796;SHT30;40911;51.552;9.874;2023-03-21T10:35:24;12.22;77.65
13796;SHT30;40911;51.552;9.874;2023-03-21T10:37:46;12.20;77.77
13796;SHT30;40911;51.552;9.874;2023-03-21T10:40:13;12.30;78.09
13796;SHT30;40911;51.552;9.874;2023-03-21T10:42:35;12.33;77.48
13796;SHT30;40911;51.552;9.874;2023-03-21T10:44:57;12.60;77.83
13796;SHT30;40911;51.552;9.874;2023-03-21T10:47:19;12.67;77.37
13796;SHT30;40911;51.552;9.874;2023-03-21T10:49:41;12.68;76.58
13796;SHT30;40911;51.552;9.874;2023-03-21T10:52:05;12.71;76.51
13796;SHT30;40911;51.552;9.874;2023-03-21T10:54:30;12.82;76.29
13796;SHT30;40911;51.552;9.874;2023-03-21T10:56:56;13.23;76.39
13796;SHT30;40911;51.552;9.874;2023-03-21T10:59:20;13.05;75.67
13796;SHT30;40911;51.552;9.874;2023-03-21T11:01:47;13.03;75.45
13796;SHT30;40911;51.552;9.874;2023-03-21T11:04:13;12.93;75.15
13796;SHT30;40911;51.552;9.874;2023-03-21T11:06:37;12.98;75.57
13796;SHT30;40911;51.552;9.874;2023-03-21T11:09:03;12.82;75.57
13796;SHT30;40911;51.552;9.874;2023-03-21T11:11:27;12.76;75.55
13796;SHT30;40911;51.552;9.874;2023-03-21T11:14:00;13.05;75.42
13796;SHT30;40911;51.552;9.874;2023-03-21T11:16:30;13.27;75.61
13796;SHT30;40911;51.552;9.874;2023-03-21T11:18:58;13.19;75.57
13796;SHT30;40911;51.552;9.874;2023-03-21T11:21:20;13.05;76.15
13796;SHT30;40911;51.552;9.874;2023-03-21T11:23:48;12.69;75.51
13796;SHT30;40911;51.552;9.874;2023-03-21T11:26:17;12.69;75.87
13796;SHT30;40911;51.552;9.874;2023-03-21T11:28:44;13.03;76.62
13796;SHT30;40911;51.552;9.874;2023-03-21T11:31:08;12.85;75.97
13796;SHT30;40911;51.552;9.874;2023-03-21T11:33:32;12.82;76.30
13796;SHT30;40911;51.552;9.874;2023-03-21T11:36:02;12.64;76.75
13796;SHT30;40911;51.552;9.874;2023-03-21T11:38:28;12.74;77.23
13796;SHT30;40911;51.552;9.874;2023-03-21T11:40:52;12.84;77.25
13796;SHT30;40911;51.552;9.874;2023-03-21T11:43:27;12.72;77.05
13796;SHT30;40911;51.552;9.874;2023-03-21T11:45:56;12.74;77.11
13796;SHT30;40911;51.552;9.874;2023-03-21T11:48:19;12.53;77.45
13796;SHT30;40911;51.552;9.874;2023-03-21T11:50:41;12.65;78.15
13796;SHT30;40911;51.552;9.874;2023-03-21T11:53:19;12.75;77.83
13796;SHT30;40911;51.552;9.874;2023-03-21T11:55:58;12.54;77.90
13796;SHT30;40911;51.552;9.874;2023-03-21T11:58:32;12.63;77.59
13796;SHT30;40911;51.552;9.874;2023-03-21T12:01:02;12.79;78.11
13796;SHT30;40911;51.552;9.874;2023-03-21T12:03:54;12.60;78.51
13796;SHT30;40911;51.552;9.874;2023-03-21T12:06:25;12.61;79.47
13796;SHT30;40911;51.552;9.874;2023-03-21T12:08:59;12.64;79.84
13796;SHT30;40911;51.552;9.874;2023-03-21T12:11:30;12.67;80.02
13796;SHT30;40911;51.552;9.874;2023-03-21T12:14:02;12.82;80.68
13796;SHT30;40911;51.552;9.874;2023-03-21T12:16:39;12.55;80.91
13796;SHT30;40911;51.552;9.874;2023-03-21T12:19:41;12.26;81.82
13796;SHT30;40911;51.552;9.874;2023-03-21T12:22:10;12.33;82.41
13796;SHT30;40911;51.552;9.874;2023-03-21T12:24:37;12.25;81.87
13796;SHT30;40911;51.552;9.874;2023-03-21T12:27:07;12.44;82.30
13796;SHT30;40911;51.552;9.874;2023-03-21T12:29:44;12.27;81.07
13796;SHT30;40911;51.552;9.874;2023-03-21T12:32:17;12.46;81.47
13796;SHT30;40911;51.552;9.874;2023-03-21T12:35:09;12.33;81.35
13796;SHT30;40911;51.552;9.874;2023-03-21T12:37:35;12.43;81.60
13796;SHT30;40911;51.552;9.874;2023-03-21T12:40:06;12.27;81.11
13796;SHT30;40911;51.552;9.874;2023-03-21T12:45:25;12.30;81.95
13796;SHT30;40911;51.552;9.874;2023-03-21T12:47:51;12.26;82.13
13796;SHT30;40911;51.552;9.874;2023-03-21T12:50:20;12.36;82.50
13796;SHT30;40911;51.552;9.874;2023-03-21T12:52:44;12.26;82.76
13796;SHT30;40911;51.552;9.874;2023-03-21T12:55:14;11.95;83.29
13796;SHT30;40911;51.552;9.874;2023-03-21T12:57:41;12.02;83.59
13796;SHT30;40911;51.552;9.874;2023-03-21T13:00:10;11.88;83.88
13796;SHT30;40911;51.552;9.874;2023-03-21T13:02:37;11.85;84.46
13796;SHT30;40911;51.552;9.874;2023-03-21T13:05:06;12.12;84.26
13796;SHT30;40911;51.552;9.874;2023-03-21T13:07:38;11.75;84.21
13796;SHT30;40911;51.552;9.874;2023-03-21T13:10:10;12.00;83.87
13796;SHT30;40911;51.552;9.874;2023-03-21T13:12:41;12.13;84.16
13796;SHT30;40911;51.552;9.874;2023-03-21T13:15:17;12.00;83.72
13796;SHT30;40911;51.552;9.874;2023-03-21T13:17:48;12.16;83.64
13796;SHT30;40911;51.552;9.874;2023-03-21T13:20:18;11.96;83.95
13796;SHT30;40911;51.552;9.874;2023-03-21T13:22:44;11.99;84.57
13796;SHT30;40911;51.552;9.874;2023-03-21T13:25:16;11.96;85.03
13796;SHT30;40911;51.552;9.874;2023-03-21T13:27:38;12.05;85.89
13796;SHT30;40911;51.552;9.874;2023-03-21T13:30:02;11.89;86.26
13796;SHT30;40911;51.552;9.874;2023-03-21T13:32:28;11.67;86.72
13796;SHT30;40911;51.552;9.874;2023-03-21T13:34:53;11.52;87.00
13796;SHT30;40911;51.552;9.874;2023-03-21T13:37:17;11.51;87.22
13796;SHT30;40911;51.552;9.874;2023-03-21T13:39:44;11.50;87.95
13796;SHT30;40911;51.552;9.874;2023-03-21T13:42:17;11.43;88.19
13796;SHT30;40911;51.552;9.874;2023-03-21T13:44:43;11.48;88.79
13796;SHT30;40911;51.552;9.874;2023-03-21T13:47:27;11.28;87.96
13796;SHT30;40911;51.552;9.874;2023-03-21T13:50:20;11.22;88.75
13796;SHT30;40911;51.552;9.874;2023-03-21T13:52:43;11.27;88.76
13796;SHT30;40911;51.552;9.874;2023-03-21T13:55:27;11.22;89.37
13796;SHT30;40911;51.552;9.874;2023-03-21T13:57:49;11.12;89.60
13796;SHT30;40911;51.552;9.874;2023-03-21T14:00:18;11.10;89.56
13796;SHT30;40911;51.552;9.874;2023-03-21T14:02:51;11.16;90.62
13796;SHT30;40911;51.552;9.874;2023-03-21T14:05:18;11.10;91.23
13796;SHT30;40911;51.552;9.874;2023-03-21T14:07:42;11.06;89.85
13796;SHT30;40911;51.552;9.874;2023-03-21T14:10:12;10.95;90.60
13796;SHT30;40911;51.552;9.874;2023-03-21T14:12:40;10.97;91.63
13796;SHT30;40911;51.552;9.874;2023-03-21T14:15:05;10.96;91.83
13796;SHT30;40911;51.552;9.874;2023-03-21T14:17:29;10.97;90.97
13796;SHT30;40911;51.552;9.874;2023-03-21T14:19:53;10.85;91.15
13796;SHT30;40911;51.552;9.874;2023-03-21T14:22:15;10.85;92.03
13796;SHT30;40911;51.552;9.874;2023-03-21T14:24:36;10.99;92.36
13796;SHT30;40911;51.552;9.874;2023-03-21T14:26:59;10.83;91.93
13796;SHT30;40911;51.552;9.874;2023-03-21T14:29:29;10.89;92.74
13796;SHT30;40911;51.552;9.874;2023-03-21T14:31:52;10.82;92.79
13796;SHT30;40911;51.552;9.874;2023-03-21T14:34:16;10.89;92.90
13796;SHT30;40911;51.552;9.874;2023-03-21T14:36:38;10.89;91.81
13796;SHT30;40911;51.552;9.874;2023-03-21T14:39:04;11.04;91.98
13796;SHT30;40911;51.552;9.874;2023-03-21T14:41:29;10.93;92.29
13796;SHT30;40911;51.552;9.874;2023-03-21T14:44:00;10.99;92.06
13796;SHT30;40911;51.552;9.874;2023-03-21T14:46:23;10.91;91.97
13796;SHT30;40911;51.552;9.874;2023-03-21T14:48:45;10.95;92.24
13796;SHT30;40911;51.552;9.874;2023-03-21T14:51:09;10.89;91.56
13796;SHT30;40911;51.552;9.874;2023-03-21T14:53:35;11.03;91.34
13796;SHT30;40911;51.552;9.874;2023-03-21T14:56:00;10.95;91.49
13796;SHT30;40911;51.552;9.874;2023-03-21T14:58:22;10.88;91.57
13796;SHT30;40911;51.552;9.874;2023-03-21T15:00:47;10.93;91.10
13796;SHT30;40911;51.552;9.874;2023-03-21T15:03:10;10.75;91.83
13796;SHT30;40911;51.552;9.874;2023-03-21T15:05:34;10.72;91.96
13796;SHT30;40911;51.552;9.874;2023-03-21T15:07:58;10.74;91.86
13796;SHT30;40911;51.552;9.874;2023-03-21T15:10:20;10.71;91.23
13796;SHT30;40911;51.552;9.874;2023-03-21T15:12:49;10.71;91.36
13796;SHT30;40911;51.552;9.874;2023-03-21T15:15:13;10.69;91.79
13796;SHT30;40911;51.552;9.874;2023-03-21T15:17:36;10.69;91.98
13796;SHT30;40911;51.552;9.874;2023-03-21T15:19:59;10.67;92.59
13796;SHT30;40911;51.552;9.874;2023-03-21T15:22:26;10.78;92.57
13796;SHT30;40911;51.552;9.874;2023-03-21T15:24:52;10.71;92.28
13796;SHT30;40911;51.552;9.874;2023-03-21T15:27:19;10.69;92.24
13796;SHT30;40911;51.552;9.874;2023-03-21T15:29:44;10.65;92.79
13796;SHT30;40911;51.552;9.874;2023-03-21T15:32:06;10.82;92.64
13796;SHT30;40911;51.552;9.874;2023-03-21T15:34:32;10.58;93.03
13796;SHT30;40911;51.552;9.874;2023-03-21T15:36:57;10.81;92.89